Aérodrome :
LOGIN :

S'inscrire | Disclaimer

   EN    FR    IT 

 










Légende :    VFR   VFR Marginal   IFR   IFR Intensif   IFR Très Intensif
Visi : 
Plafond : 
>= 8 km
>= 3000ft
5 à 8 km
1000 à 3000 ft
1500m à 5 km
500 à 1000 ft
800 à 1500m
200 à 500 ft
< 800m
< 200 ft
Symboles :   Orages  Brouillard  Fortes neiges  Fortes précipitations  Vent > 20 kt
SIGMETs :   Divers  Orages  Givrage  Turbulence  Onde Orograph.  Cendres Volcan.






- Altitude de l'aérodrome : 1487 ft
- Code IATA : MUC


EDDM - München Franz Josef Strauss

DERNIER METAR :
  • 210950Z AUTO VRB02KT CAVOK 27/18 Q1010 NOSIG

METARs EXPIRÉS :
  • 210920Z AUTO VRB02KT CAVOK 26/18 Q1010 NOSIG
  • 210850Z AUTO VRB03KT CAVOK 25/18 Q1010 NOSIG
  • 210820Z AUTO VRB02KT CAVOK 24/18 Q1010 NOSIG
  • 210750Z AUTO 10004KT 050V140 CAVOK 23/18 Q1010 NOSIG
  • 210720Z AUTO 08004KT 030V130 CAVOK 22/17 Q1010 NOSIG
  • 210650Z AUTO VRB02KT CAVOK 21/18 Q1010 NOSIG
  • 210620Z AUTO 05004KT 020V090 CAVOK 20/17 Q1010 NOSIG
  • 210550Z AUTO 08006KT CAVOK 19/17 Q1010 NOSIG
  • 210520Z AUTO VRB02KT 9000 NCD 18/17 Q1010 BECMG 07005KT

TAF TAF EDDM
Valide du 21 à 06h jusqu'au 22 à 12h UTC


210500Z 2106/2212 07004KT CAVOK
BECMG 2113/2116 34005KT
BECMG 2116/2119 26006KT
PROB30
TEMPO 2117/2121 25020G40KT 3000 +TSRAGR SCT010 BKN040CB
PROB30
TEMPO 2121/2207 SHRA BKN012 BKN045CB
PROB40
TEMPO 2207/2212 4000 SHRA BKN012CB



MET'MAP, la Météo Aéronautique d'un coup d'oeil ! - Copyright ORBIFLY Décembre 2007 - Disclaimer

ORBIFLY MET'MAP TEAM :

Programmation & Développement : Alexandra Zaïnal
Sur une idée originale de : Baudouin d'Aumeries
Soutien technique & logistique : Manuel Goepfert
Assistance : Marc-Olivier Méhu




SOURCES & CREDITS :

   NOAA